sensor_id;sensor_type;location;lat;lon;timestamp;P1;durP1;ratioP1;P2;durP2;ratioP2
34988;SDS011;21192;40.182;44.516;2023-03-13T00:00:51;19.75;;;8.95;;
34988;SDS011;21192;40.182;44.516;2023-03-13T00:03:18;22.10;;;9.40;;
34988;SDS011;21192;40.182;44.516;2023-03-13T00:05:44;16.95;;;7.57;;
34988;SDS011;21192;40.182;44.516;2023-03-13T00:08:10;20.65;;;8.57;;
34988;SDS011;21192;40.182;44.516;2023-03-13T00:10:36;17.60;;;8.50;;
34988;SDS011;21192;40.182;44.516;2023-03-13T00:13:06;20.83;;;8.43;;
34988;SDS011;21192;40.182;44.516;2023-03-13T00:15:32;22.33;;;8.02;;
34988;SDS011;21192;40.182;44.516;2023-03-13T00:17:58;20.90;;;7.43;;
34988;SDS011;21192;40.182;44.516;2023-03-13T00:20:24;22.65;;;9.38;;
34988;SDS011;21192;40.182;44.516;2023-03-13T00:22:50;18.10;;;8.68;;
34988;SDS011;21192;40.182;44.516;2023-03-13T00:25:16;16.73;;;8.20;;
34988;SDS011;21192;40.182;44.516;2023-03-13T00:27:42;18.73;;;8.85;;
34988;SDS011;21192;40.182;44.516;2023-03-13T00:30:08;18.08;;;8.32;;
34988;SDS011;21192;40.182;44.516;2023-03-13T00:32:39;19.35;;;8.25;;
34988;SDS011;21192;40.182;44.516;2023-03-13T00:35:06;21.38;;;8.07;;
34988;SDS011;21192;40.182;44.516;2023-03-13T00:37:32;24.80;;;8.50;;
34988;SDS011;21192;40.182;44.516;2023-03-13T00:39:58;20.58;;;7.97;;
34988;SDS011;21192;40.182;44.516;2023-03-13T00:42:23;17.63;;;7.75;;
34988;SDS011;21192;40.182;44.516;2023-03-13T00:44:49;18.65;;;8.48;;
34988;SDS011;21192;40.182;44.516;2023-03-13T00:47:15;19.35;;;8.07;;
34988;SDS011;21192;40.182;44.516;2023-03-13T00:49:41;22.67;;;9.82;;
34988;SDS011;21192;40.182;44.516;2023-03-13T00:52:06;21.80;;;9.57;;
34988;SDS011;21192;40.182;44.516;2023-03-13T00:54:32;24.75;;;9.02;;
34988;SDS011;21192;40.182;44.516;2023-03-13T00:56:58;24.85;;;9.02;;
34988;SDS011;21192;40.182;44.516;2023-03-13T00:59:24;20.10;;;8.57;;
34988;SDS011;21192;40.182;44.516;2023-03-13T01:01:50;17.90;;;8.02;;
34988;SDS011;21192;40.182;44.516;2023-03-13T01:04:15;18.00;;;7.90;;
34988;SDS011;21192;40.182;44.516;2023-03-13T01:06:41;17.10;;;7.50;;
34988;SDS011;21192;40.182;44.516;2023-03-13T01:09:08;14.25;;;6.13;;
34988;SDS011;21192;40.182;44.516;2023-03-13T01:11:37;16.80;;;7.05;;
34988;SDS011;21192;40.182;44.516;2023-03-13T01:14:06;16.52;;;7.10;;
34988;SDS011;21192;40.182;44.516;2023-03-13T01:16:37;19.38;;;7.25;;
34988;SDS011;21192;40.182;44.516;2023-03-13T01:19:05;22.10;;;9.95;;
34988;SDS011;21192;40.182;44.516;2023-03-13T01:21:32;21.33;;;7.35;;
34988;SDS011;21192;40.182;44.516;2023-03-13T01:23:58;14.13;;;7.78;;
34988;SDS011;21192;40.182;44.516;2023-03-13T01:26:25;14.25;;;7.30;;
34988;SDS011;21192;40.182;44.516;2023-03-13T01:28:51;14.90;;;6.80;;
34988;SDS011;21192;40.182;44.516;2023-03-13T01:33:43;20.98;;;7.57;;
34988;SDS011;21192;40.182;44.516;2023-03-13T01:36:10;13.68;;;7.18;;
34988;SDS011;21192;40.182;44.516;2023-03-13T01:38:37;18.05;;;6.95;;
34988;SDS011;21192;40.182;44.516;2023-03-13T01:41:03;15.63;;;6.38;;
34988;SDS011;21192;40.182;44.516;2023-03-13T01:43:32;17.90;;;6.95;;
34988;SDS011;21192;40.182;44.516;2023-03-13T01:51:11;12.93;;;5.47;;
34988;SDS011;21192;40.182;44.516;2023-03-13T01:53:57;14.88;;;6.13;;
34988;SDS011;21192;40.182;44.516;2023-03-13T01:56:33;10.80;;;5.78;;
34988;SDS011;21192;40.182;44.516;2023-03-13T01:59:01;14.50;;;5.78;;
34988;SDS011;21192;40.182;44.516;2023-03-13T02:01:28;12.98;;;5.88;;
34988;SDS011;21192;40.182;44.516;2023-03-13T02:03:55;14.32;;;5.90;;
34988;SDS011;21192;40.182;44.516;2023-03-13T02:06:22;13.32;;;5.80;;
34988;SDS011;21192;40.182;44.516;2023-03-13T02:08:50;14.32;;;5.75;;
34988;SDS011;21192;40.182;44.516;2023-03-13T02:14:09;15.80;;;6.72;;
34988;SDS011;21192;40.182;44.516;2023-03-13T02:16:36;16.95;;;7.03;;
34988;SDS011;21192;40.182;44.516;2023-03-13T02:19:05;21.55;;;7.07;;
34988;SDS011;21192;40.182;44.516;2023-03-13T02:21:51;18.60;;;7.00;;
34988;SDS011;21192;40.182;44.516;2023-03-13T02:27:02;15.25;;;8.02;;
34988;SDS011;21192;40.182;44.516;2023-03-13T02:29:28;19.88;;;8.00;;
34988;SDS011;21192;40.182;44.516;2023-03-13T02:31:54;16.58;;;6.95;;
34988;SDS011;21192;40.182;44.516;2023-03-13T02:34:21;17.42;;;7.68;;
34988;SDS011;21192;40.182;44.516;2023-03-13T02:36:52;18.48;;;7.43;;
34988;SDS011;21192;40.182;44.516;2023-03-13T02:39:19;18.67;;;7.22;;
34988;SDS011;21192;40.182;44.516;2023-03-13T02:41:47;22.45;;;8.07;;
34988;SDS011;21192;40.182;44.516;2023-03-13T02:44:16;16.10;;;7.43;;
34988;SDS011;21192;40.182;44.516;2023-03-13T02:46:43;16.88;;;6.88;;
34988;SDS011;21192;40.182;44.516;2023-03-13T02:49:24;15.77;;;7.63;;
34988;SDS011;21192;40.182;44.516;2023-03-13T02:51:52;18.95;;;7.60;;
34988;SDS011;21192;40.182;44.516;2023-03-13T02:54:23;21.25;;;9.23;;
34988;SDS011;21192;40.182;44.516;2023-03-13T02:56:55;19.15;;;8.38;;
34988;SDS011;21192;40.182;44.516;2023-03-13T02:59:25;19.63;;;7.95;;
34988;SDS011;21192;40.182;44.516;2023-03-13T03:01:51;17.83;;;8.00;;
34988;SDS011;21192;40.182;44.516;2023-03-13T03:04:18;18.90;;;7.93;;
34988;SDS011;21192;40.182;44.516;2023-03-13T03:06:45;13.00;;;7.53;;
34988;SDS011;21192;40.182;44.516;2023-03-13T03:09:11;15.70;;;6.80;;
34988;SDS011;21192;40.182;44.516;2023-03-13T03:11:37;17.77;;;7.03;;
34988;SDS011;21192;40.182;44.516;2023-03-13T03:14:03;16.70;;;6.35;;
34988;SDS011;21192;40.182;44.516;2023-03-13T03:16:29;17.13;;;6.85;;
34988;SDS011;21192;40.182;44.516;2023-03-13T03:18:55;17.80;;;7.43;;
34988;SDS011;21192;40.182;44.516;2023-03-13T03:21:21;16.58;;;7.32;;
34988;SDS011;21192;40.182;44.516;2023-03-13T03:23:48;16.10;;;7.13;;
34988;SDS011;21192;40.182;44.516;2023-03-13T03:26:14;17.88;;;8.23;;
34988;SDS011;21192;40.182;44.516;2023-03-13T03:28:40;17.65;;;8.23;;
34988;SDS011;21192;40.182;44.516;2023-03-13T03:31:06;15.15;;;8.23;;
34988;SDS011;21192;40.182;44.516;2023-03-13T03:33:34;16.23;;;8.27;;
34988;SDS011;21192;40.182;44.516;2023-03-13T03:36:33;17.45;;;8.75;;
34988;SDS011;21192;40.182;44.516;2023-03-13T03:38:53;19.92;;;8.77;;
34988;SDS011;21192;40.182;44.516;2023-03-13T03:41:19;19.58;;;8.48;;
34988;SDS011;21192;40.182;44.516;2023-03-13T03:43:45;18.67;;;8.57;;
34988;SDS011;21192;40.182;44.516;2023-03-13T03:46:12;23.52;;;8.95;;
34988;SDS011;21192;40.182;44.516;2023-03-13T03:48:38;23.30;;;8.10;;
34988;SDS011;21192;40.182;44.516;2023-03-13T03:51:04;20.42;;;7.47;;
34988;SDS011;21192;40.182;44.516;2023-03-13T03:53:30;17.67;;;7.63;;
34988;SDS011;21192;40.182;44.516;2023-03-13T03:55:56;18.30;;;7.47;;
34988;SDS011;21192;40.182;44.516;2023-03-13T03:58:22;19.73;;;8.45;;
34988;SDS011;21192;40.182;44.516;2023-03-13T04:00:48;17.05;;;8.10;;
34988;SDS011;21192;40.182;44.516;2023-03-13T04:03:14;19.17;;;8.48;;
34988;SDS011;21192;40.182;44.516;2023-03-13T04:05:41;20.63;;;8.02;;
34988;SDS011;21192;40.182;44.516;2023-03-13T04:08:07;21.38;;;7.35;;
34988;SDS011;21192;40.182;44.516;2023-03-13T04:10:34;16.70;;;6.63;;
34988;SDS011;21192;40.182;44.516;2023-03-13T04:13:00;17.15;;;6.63;;
34988;SDS011;21192;40.182;44.516;2023-03-13T04:15:26;16.70;;;6.70;;
34988;SDS011;21192;40.182;44.516;2023-03-13T04:17:52;23.05;;;7.90;;
34988;SDS011;21192;40.182;44.516;2023-03-13T04:20:17;20.45;;;8.50;;
34988;SDS011;21192;40.182;44.516;2023-03-13T04:22:43;26.02;;;9.98;;
34988;SDS011;21192;40.182;44.516;2023-03-13T04:25:11;33.60;;;12.77;;
34988;SDS011;21192;40.182;44.516;2023-03-13T04:27:36;31.50;;;14.18;;
34988;SDS011;21192;40.182;44.516;2023-03-13T04:30:02;25.35;;;12.55;;
34988;SDS011;21192;40.182;44.516;2023-03-13T04:32:28;19.33;;;11.10;;
34988;SDS011;21192;40.182;44.516;2023-03-13T04:34:54;24.98;;;11.32;;
34988;SDS011;21192;40.182;44.516;2023-03-13T04:37:20;21.23;;;10.45;;
34988;SDS011;21192;40.182;44.516;2023-03-13T04:39:46;19.42;;;9.57;;
34988;SDS011;21192;40.182;44.516;2023-03-13T04:42:12;23.23;;;9.90;;
34988;SDS011;21192;40.182;44.516;2023-03-13T04:44:38;18.77;;;8.18;;
34988;SDS011;21192;40.182;44.516;2023-03-13T04:47:04;18.85;;;8.07;;
34988;SDS011;21192;40.182;44.516;2023-03-13T04:49:30;25.90;;;10.05;;
34988;SDS011;21192;40.182;44.516;2023-03-13T04:51:55;20.30;;;9.20;;
34988;SDS011;21192;40.182;44.516;2023-03-13T04:54:21;24.23;;;9.77;;
34988;SDS011;21192;40.182;44.516;2023-03-13T04:56:47;21.48;;;10.00;;
34988;SDS011;21192;40.182;44.516;2023-03-13T04:59:13;25.70;;;11.32;;
34988;SDS011;21192;40.182;44.516;2023-03-13T05:01:40;22.30;;;11.60;;
34988;SDS011;21192;40.182;44.516;2023-03-13T05:04:07;32.58;;;11.98;;
34988;SDS011;21192;40.182;44.516;2023-03-13T05:06:33;27.27;;;11.57;;
34988;SDS011;21192;40.182;44.516;2023-03-13T05:08:59;27.70;;;12.10;;
34988;SDS011;21192;40.182;44.516;2023-03-13T05:11:26;31.98;;;11.50;;
34988;SDS011;21192;40.182;44.516;2023-03-13T05:13:52;24.23;;;11.13;;
34988;SDS011;21192;40.182;44.516;2023-03-13T05:16:18;24.55;;;10.52;;
34988;SDS011;21192;40.182;44.516;2023-03-13T05:18:44;20.23;;;8.68;;
34988;SDS011;21192;40.182;44.516;2023-03-13T05:21:09;20.08;;;8.57;;
34988;SDS011;21192;40.182;44.516;2023-03-13T05:23:35;23.65;;;9.32;;
34988;SDS011;21192;40.182;44.516;2023-03-13T05:26:01;18.85;;;8.30;;
34988;SDS011;21192;40.182;44.516;2023-03-13T05:28:27;20.60;;;8.23;;
34988;SDS011;21192;40.182;44.516;2023-03-13T05:30:53;16.52;;;7.38;;
34988;SDS011;21192;40.182;44.516;2023-03-13T05:33:19;13.50;;;6.55;;
34988;SDS011;21192;40.182;44.516;2023-03-13T05:35:45;16.63;;;6.32;;
34988;SDS011;21192;40.182;44.516;2023-03-13T05:38:11;12.57;;;5.22;;
34988;SDS011;21192;40.182;44.516;2023-03-13T05:40:37;15.90;;;5.25;;
34988;SDS011;21192;40.182;44.516;2023-03-13T05:43:03;17.92;;;6.47;;
34988;SDS011;21192;40.182;44.516;2023-03-13T05:45:30;15.95;;;5.85;;
34988;SDS011;21192;40.182;44.516;2023-03-13T05:47:55;21.58;;;6.97;;
34988;SDS011;21192;40.182;44.516;2023-03-13T05:50:23;17.20;;;5.93;;
34988;SDS011;21192;40.182;44.516;2023-03-13T05:52:49;13.88;;;5.60;;
34988;SDS011;21192;40.182;44.516;2023-03-13T05:55:15;19.70;;;6.28;;
34988;SDS011;21192;40.182;44.516;2023-03-13T05:57:46;14.43;;;5.93;;
34988;SDS011;21192;40.182;44.516;2023-03-13T06:00:13;13.80;;;5.43;;
34988;SDS011;21192;40.182;44.516;2023-03-13T06:02:40;26.45;;;7.90;;
34988;SDS011;21192;40.182;44.516;2023-03-13T06:05:07;21.20;;;7.32;;
34988;SDS011;21192;40.182;44.516;2023-03-13T06:07:34;20.63;;;7.15;;
34988;SDS011;21192;40.182;44.516;2023-03-13T06:10:00;42.17;;;7.88;;
34988;SDS011;21192;40.182;44.516;2023-03-13T06:12:26;18.13;;;6.47;;
34988;SDS011;21192;40.182;44.516;2023-03-13T06:14:52;22.42;;;6.93;;
34988;SDS011;21192;40.182;44.516;2023-03-13T06:17:18;48.05;;;9.85;;
34988;SDS011;21192;40.182;44.516;2023-03-13T06:19:45;31.92;;;9.30;;
34988;SDS011;21192;40.182;44.516;2023-03-13T06:22:11;29.20;;;5.85;;
34988;SDS011;21192;40.182;44.516;2023-03-13T06:24:37;27.80;;;6.38;;
34988;SDS011;21192;40.182;44.516;2023-03-13T06:27:03;23.02;;;7.15;;
34988;SDS011;21192;40.182;44.516;2023-03-13T06:29:29;24.85;;;7.10;;
34988;SDS011;21192;40.182;44.516;2023-03-13T06:31:54;26.77;;;6.78;;
34988;SDS011;21192;40.182;44.516;2023-03-13T06:34:20;27.13;;;7.40;;
34988;SDS011;21192;40.182;44.516;2023-03-13T06:36:46;18.60;;;6.40;;
34988;SDS011;21192;40.182;44.516;2023-03-13T06:39:12;21.55;;;6.90;;
34988;SDS011;21192;40.182;44.516;2023-03-13T06:41:38;31.83;;;7.25;;
34988;SDS011;21192;40.182;44.516;2023-03-13T06:44:04;22.58;;;7.20;;
34988;SDS011;21192;40.182;44.516;2023-03-13T06:46:29;30.23;;;8.13;;
34988;SDS011;21192;40.182;44.516;2023-03-13T06:48:58;26.33;;;8.70;;
34988;SDS011;21192;40.182;44.516;2023-03-13T06:51:28;29.98;;;8.85;;
34988;SDS011;21192;40.182;44.516;2023-03-13T06:53:54;22.48;;;8.98;;
34988;SDS011;21192;40.182;44.516;2023-03-13T06:56:20;32.25;;;9.88;;
34988;SDS011;21192;40.182;44.516;2023-03-13T06:58:46;22.33;;;9.77;;
34988;SDS011;21192;40.182;44.516;2023-03-13T07:01:13;31.45;;;8.98;;
34988;SDS011;21192;40.182;44.516;2023-03-13T07:03:40;22.10;;;8.48;;
34988;SDS011;21192;40.182;44.516;2023-03-13T07:06:06;36.45;;;10.07;;
34988;SDS011;21192;40.182;44.516;2023-03-13T07:08:33;30.08;;;8.75;;
34988;SDS011;21192;40.182;44.516;2023-03-13T07:11:01;20.85;;;8.30;;
34988;SDS011;21192;40.182;44.516;2023-03-13T07:13:31;28.05;;;9.23;;
34988;SDS011;21192;40.182;44.516;2023-03-13T07:16:01;26.48;;;9.27;;
34988;SDS011;21192;40.182;44.516;2023-03-13T07:18:32;25.67;;;9.27;;
34988;SDS011;21192;40.182;44.516;2023-03-13T07:20:58;29.52;;;8.85;;
34988;SDS011;21192;40.182;44.516;2023-03-13T07:23:27;45.25;;;10.80;;
34988;SDS011;21192;40.182;44.516;2023-03-13T07:28:27;24.88;;;8.98;;
34988;SDS011;21192;40.182;44.516;2023-03-13T07:31:01;25.38;;;9.88;;
34988;SDS011;21192;40.182;44.516;2023-03-13T07:33:28;23.05;;;10.63;;
34988;SDS011;21192;40.182;44.516;2023-03-13T07:35:54;27.27;;;10.63;;
34988;SDS011;21192;40.182;44.516;2023-03-13T07:38:20;23.77;;;10.05;;
34988;SDS011;21192;40.182;44.516;2023-03-13T07:40:46;29.75;;;10.07;;
34988;SDS011;21192;40.182;44.516;2023-03-13T07:43:16;25.15;;;8.38;;
34988;SDS011;21192;40.182;44.516;2023-03-13T07:45:55;22.25;;;8.45;;
34988;SDS011;21192;40.182;44.516;2023-03-13T07:48:23;26.77;;;8.13;;
34988;SDS011;21192;40.182;44.516;2023-03-13T07:50:53;26.92;;;8.75;;
34988;SDS011;21192;40.182;44.516;2023-03-13T07:53:19;19.80;;;7.43;;
34988;SDS011;21192;40.182;44.516;2023-03-13T07:56:19;17.63;;;7.00;;
34988;SDS011;21192;40.182;44.516;2023-03-13T07:58:39;23.05;;;7.78;;
34988;SDS011;21192;40.182;44.516;2023-03-13T08:01:16;25.05;;;7.70;;
34988;SDS011;21192;40.182;44.516;2023-03-13T08:03:46;24.48;;;8.48;;
34988;SDS011;21192;40.182;44.516;2023-03-13T08:06:19;20.35;;;8.02;;
34988;SDS011;21192;40.182;44.516;2023-03-13T08:08:47;14.13;;;6.75;;
34988;SDS011;21192;40.182;44.516;2023-03-13T08:11:17;20.42;;;8.10;;
34988;SDS011;21192;40.182;44.516;2023-03-13T08:13:45;25.50;;;8.25;;
34988;SDS011;21192;40.182;44.516;2023-03-13T08:16:19;20.85;;;7.53;;
34988;SDS011;21192;40.182;44.516;2023-03-13T08:18:47;16.85;;;8.13;;
34988;SDS011;21192;40.182;44.516;2023-03-13T08:21:15;17.58;;;6.70;;
34988;SDS011;21192;40.182;44.516;2023-03-13T08:23:43;12.82;;;6.60;;
34988;SDS011;21192;40.182;44.516;2023-03-13T08:26:10;21.30;;;8.32;;
34988;SDS011;21192;40.182;44.516;2023-03-13T08:28:44;13.95;;;7.22;;
34988;SDS011;21192;40.182;44.516;2023-03-13T08:31:18;18.75;;;7.20;;
34988;SDS011;21192;40.182;44.516;2023-03-13T08:33:46;17.13;;;8.20;;
34988;SDS011;21192;40.182;44.516;2023-03-13T08:36:14;16.63;;;7.68;;
34988;SDS011;21192;40.182;44.516;2023-03-13T08:38:45;21.05;;;7.80;;
34988;SDS011;21192;40.182;44.516;2023-03-13T08:41:16;14.85;;;7.55;;
34988;SDS011;21192;40.182;44.516;2023-03-13T08:43:43;14.18;;;7.57;;
34988;SDS011;21192;40.182;44.516;2023-03-13T08:46:10;16.98;;;8.27;;
34988;SDS011;21192;40.182;44.516;2023-03-13T08:48:36;21.73;;;7.70;;
34988;SDS011;21192;40.182;44.516;2023-03-13T08:51:06;20.15;;;8.10;;
34988;SDS011;21192;40.182;44.516;2023-03-13T08:53:33;19.60;;;8.30;;
34988;SDS011;21192;40.182;44.516;2023-03-13T08:56:00;24.67;;;9.20;;
34988;SDS011;21192;40.182;44.516;2023-03-13T08:58:26;21.60;;;8.38;;
34988;SDS011;21192;40.182;44.516;2023-03-13T09:00:53;23.27;;;9.43;;
34988;SDS011;21192;40.182;44.516;2023-03-13T09:03:19;15.98;;;8.52;;
34988;SDS011;21192;40.182;44.516;2023-03-13T09:05:45;25.95;;;9.73;;
34988;SDS011;21192;40.182;44.516;2023-03-13T09:08:12;22.45;;;9.93;;
34988;SDS011;21192;40.182;44.516;2023-03-13T09:10:39;21.15;;;10.40;;
34988;SDS011;21192;40.182;44.516;2023-03-13T09:13:05;26.52;;;9.85;;
34988;SDS011;21192;40.182;44.516;2023-03-13T09:15:31;21.02;;;9.55;;
34988;SDS011;21192;40.182;44.516;2023-03-13T09:17:57;25.67;;;11.00;;
34988;SDS011;21192;40.182;44.516;2023-03-13T09:20:22;21.38;;;11.38;;
34988;SDS011;21192;40.182;44.516;2023-03-13T09:22:48;30.20;;;12.18;;
34988;SDS011;21192;40.182;44.516;2023-03-13T09:25:14;25.30;;;10.88;;
34988;SDS011;21192;40.182;44.516;2023-03-13T09:27:40;20.73;;;9.93;;
34988;SDS011;21192;40.182;44.516;2023-03-13T09:30:06;21.73;;;10.32;;
34988;SDS011;21192;40.182;44.516;2023-03-13T09:32:32;23.27;;;10.18;;
34988;SDS011;21192;40.182;44.516;2023-03-13T09:34:58;28.17;;;12.65;;
34988;SDS011;21192;40.182;44.516;2023-03-13T09:37:24;26.42;;;11.73;;
34988;SDS011;21192;40.182;44.516;2023-03-13T09:39:50;23.85;;;11.70;;
34988;SDS011;21192;40.182;44.516;2023-03-13T09:42:17;28.55;;;10.15;;
34988;SDS011;21192;40.182;44.516;2023-03-13T09:44:52;23.50;;;10.65;;
34988;SDS011;21192;40.182;44.516;2023-03-13T09:50:31;18.95;;;8.95;;
34988;SDS011;21192;40.182;44.516;2023-03-13T09:53:02;17.83;;;9.32;;
34988;SDS011;21192;40.182;44.516;2023-03-13T09:55:35;14.75;;;9.07;;
34988;SDS011;21192;40.182;44.516;2023-03-13T09:58:10;14.82;;;9.05;;
34988;SDS011;21192;40.182;44.516;2023-03-13T10:00:41;15.73;;;8.25;;
34988;SDS011;21192;40.182;44.516;2023-03-13T10:03:34;13.82;;;7.35;;
34988;SDS011;21192;40.182;44.516;2023-03-13T10:06:17;24.27;;;8.77;;
34988;SDS011;21192;40.182;44.516;2023-03-13T10:08:44;20.65;;;9.10;;
34988;SDS011;21192;40.182;44.516;2023-03-13T10:16:39;20.38;;;9.43;;
34988;SDS011;21192;40.182;44.516;2023-03-13T10:19:13;19.35;;;9.48;;
34988;SDS011;21192;40.182;44.516;2023-03-13T10:21:42;19.02;;;10.27;;
34988;SDS011;21192;40.182;44.516;2023-03-13T10:26:43;19.27;;;9.30;;
34988;SDS011;21192;40.182;44.516;2023-03-13T10:29:19;23.27;;;10.38;;
34988;SDS011;21192;40.182;44.516;2023-03-13T10:31:57;20.40;;;9.00;;
34988;SDS011;21192;40.182;44.516;2023-03-13T10:34:26;18.67;;;9.82;;
34988;SDS011;21192;40.182;44.516;2023-03-13T10:37:11;17.52;;;9.20;;
34988;SDS011;21192;40.182;44.516;2023-03-13T10:39:39;22.98;;;9.10;;
34988;SDS011;21192;40.182;44.516;2023-03-13T10:42:47;15.45;;;8.80;;
34988;SDS011;21192;40.182;44.516;2023-03-13T10:45:00;21.42;;;9.23;;
34988;SDS011;21192;40.182;44.516;2023-03-13T10:47:32;23.65;;;8.65;;
34988;SDS011;21192;40.182;44.516;2023-03-13T10:49:59;18.10;;;10.05;;
34988;SDS011;21192;40.182;44.516;2023-03-13T10:55:10;17.52;;;8.88;;
34988;SDS011;21192;40.182;44.516;2023-03-13T10:57:38;18.33;;;9.07;;
34988;SDS011;21192;40.182;44.516;2023-03-13T11:00:27;24.08;;;8.57;;
34988;SDS011;21192;40.182;44.516;2023-03-13T11:02:57;15.40;;;7.57;;
34988;SDS011;21192;40.182;44.516;2023-03-13T11:05:36;16.02;;;7.57;;
34988;SDS011;21192;40.182;44.516;2023-03-13T11:08:27;19.10;;;8.40;;
34988;SDS011;21192;40.182;44.516;2023-03-13T11:11:14;16.45;;;8.55;;
34988;SDS011;21192;40.182;44.516;2023-03-13T11:13:43;21.30;;;8.60;;
34988;SDS011;21192;40.182;44.516;2023-03-13T11:16:28;24.88;;;8.93;;
34988;SDS011;21192;40.182;44.516;2023-03-13T11:24:31;30.35;;;10.68;;
34988;SDS011;21192;40.182;44.516;2023-03-13T11:32:55;17.05;;;6.97;;
34988;SDS011;21192;40.182;44.516;2023-03-13T11:38:02;14.07;;;6.88;;
34988;SDS011;21192;40.182;44.516;2023-03-13T11:40:37;32.80;;;10.20;;
34988;SDS011;21192;40.182;44.516;2023-03-13T11:46:01;24.13;;;8.43;;
34988;SDS011;21192;40.182;44.516;2023-03-13T11:56:56;33.55;;;9.68;;
34988;SDS011;21192;40.182;44.516;2023-03-13T12:02:30;19.65;;;8.00;;
34988;SDS011;21192;40.182;44.516;2023-03-13T12:05:01;16.15;;;6.50;;
34988;SDS011;21192;40.182;44.516;2023-03-13T12:07:35;17.98;;;6.13;;
34988;SDS011;21192;40.182;44.516;2023-03-13T12:10:15;20.42;;;6.97;;
34988;SDS011;21192;40.182;44.516;2023-03-13T12:15:46;20.02;;;6.80;;
34988;SDS011;21192;40.182;44.516;2023-03-13T12:18:24;22.05;;;6.57;;
34988;SDS011;21192;40.182;44.516;2023-03-13T12:21:03;26.67;;;7.60;;
34988;SDS011;21192;40.182;44.516;2023-03-13T12:23:49;22.08;;;6.63;;
34988;SDS011;21192;40.182;44.516;2023-03-13T12:26:33;21.80;;;6.25;;
34988;SDS011;21192;40.182;44.516;2023-03-13T12:29:16;26.20;;;7.72;;
34988;SDS011;21192;40.182;44.516;2023-03-13T12:32:06;26.80;;;6.05;;
34988;SDS011;21192;40.182;44.516;2023-03-13T12:35:04;14.45;;;5.55;;
34988;SDS011;21192;40.182;44.516;2023-03-13T12:41:07;32.72;;;7.43;;
34988;SDS011;21192;40.182;44.516;2023-03-13T12:43:38;22.13;;;6.65;;
34988;SDS011;21192;40.182;44.516;2023-03-13T12:46:18;17.63;;;5.43;;
34988;SDS011;21192;40.182;44.516;2023-03-13T13:00:49;22.85;;;8.00;;
34988;SDS011;21192;40.182;44.516;2023-03-13T13:06:07;18.10;;;8.00;;
34988;SDS011;21192;40.182;44.516;2023-03-13T13:08:43;14.80;;;6.30;;
34988;SDS011;21192;40.182;44.516;2023-03-13T13:13:58;20.92;;;6.38;;
34988;SDS011;21192;40.182;44.516;2023-03-13T13:16:31;23.42;;;6.22;;
34988;SDS011;21192;40.182;44.516;2023-03-13T13:24:57;21.60;;;7.32;;
34988;SDS011;21192;40.182;44.516;2023-03-13T13:30:00;17.77;;;6.32;;
34988;SDS011;21192;40.182;44.516;2023-03-13T13:35:43;13.40;;;5.57;;
34988;SDS011;21192;40.182;44.516;2023-03-13T13:43:29;21.75;;;6.07;;
34988;SDS011;21192;40.182;44.516;2023-03-13T13:51:33;30.75;;;7.53;;
34988;SDS011;21192;40.182;44.516;2023-03-13T13:54:02;23.60;;;6.72;;
34988;SDS011;21192;40.182;44.516;2023-03-13T13:56:55;28.60;;;8.20;;
34988;SDS011;21192;40.182;44.516;2023-03-13T13:59:32;19.67;;;7.75;;
34988;SDS011;21192;40.182;44.516;2023-03-13T14:10:20;14.13;;;5.20;;
34988;SDS011;21192;40.182;44.516;2023-03-13T14:13:08;16.55;;;6.72;;
34988;SDS011;21192;40.182;44.516;2023-03-13T14:15:44;17.15;;;6.07;;
34988;SDS011;21192;40.182;44.516;2023-03-13T14:18:21;13.98;;;6.80;;
34988;SDS011;21192;40.182;44.516;2023-03-13T14:26:33;23.75;;;9.27;;
34988;SDS011;21192;40.182;44.516;2023-03-13T14:29:06;29.00;;;8.95;;
34988;SDS011;21192;40.182;44.516;2023-03-13T14:31:48;16.92;;;6.65;;
34988;SDS011;21192;40.182;44.516;2023-03-13T14:34:15;16.27;;;7.22;;
34988;SDS011;21192;40.182;44.516;2023-03-13T14:36:45;25.63;;;9.85;;
34988;SDS011;21192;40.182;44.516;2023-03-13T14:42:03;17.67;;;7.88;;
34988;SDS011;21192;40.182;44.516;2023-03-13T14:44:30;23.67;;;10.27;;
34988;SDS011;21192;40.182;44.516;2023-03-13T14:47:06;25.85;;;10.82;;
34988;SDS011;21192;40.182;44.516;2023-03-13T14:49:45;23.10;;;10.77;;
34988;SDS011;21192;40.182;44.516;2023-03-13T14:52:24;43.20;;;19.42;;
34988;SDS011;21192;40.182;44.516;2023-03-13T14:54:52;36.58;;;12.63;;
34988;SDS011;21192;40.182;44.516;2023-03-13T14:57:21;21.45;;;11.23;;
34988;SDS011;21192;40.182;44.516;2023-03-13T14:59:49;25.58;;;13.13;;
34988;SDS011;21192;40.182;44.516;2023-03-13T15:02:22;38.53;;;16.73;;
34988;SDS011;21192;40.182;44.516;2023-03-13T15:04:58;30.10;;;13.02;;
34988;SDS011;21192;40.182;44.516;2023-03-13T15:07:38;34.20;;;14.35;;
34988;SDS011;21192;40.182;44.516;2023-03-13T15:12:43;43.13;;;18.20;;
34988;SDS011;21192;40.182;44.516;2023-03-13T15:15:10;47.28;;;18.83;;
34988;SDS011;21192;40.182;44.516;2023-03-13T15:17:36;68.00;;;28.73;;
34988;SDS011;21192;40.182;44.516;2023-03-13T15:20:02;52.38;;;21.23;;
34988;SDS011;21192;40.182;44.516;2023-03-13T15:22:37;53.28;;;26.58;;
34988;SDS011;21192;40.182;44.516;2023-03-13T15:25:37;49.30;;;20.88;;
34988;SDS011;21192;40.182;44.516;2023-03-13T15:27:56;56.67;;;24.98;;
34988;SDS011;21192;40.182;44.516;2023-03-13T15:30:22;40.72;;;18.98;;
34988;SDS011;21192;40.182;44.516;2023-03-13T15:32:48;44.15;;;20.42;;
34988;SDS011;21192;40.182;44.516;2023-03-13T15:35:24;50.00;;;22.42;;
34988;SDS011;21192;40.182;44.516;2023-03-13T15:37:52;52.22;;;24.40;;
34988;SDS011;21192;40.182;44.516;2023-03-13T15:40:19;58.08;;;25.25;;
34988;SDS011;21192;40.182;44.516;2023-03-13T15:42:45;53.25;;;26.92;;
34988;SDS011;21192;40.182;44.516;2023-03-13T15:45:11;48.85;;;23.35;;
34988;SDS011;21192;40.182;44.516;2023-03-13T15:47:37;57.85;;;24.30;;
34988;SDS011;21192;40.182;44.516;2023-03-13T15:50:03;54.35;;;24.30;;
34988;SDS011;21192;40.182;44.516;2023-03-13T15:52:31;57.55;;;26.02;;
34988;SDS011;21192;40.182;44.516;2023-03-13T15:54:58;48.75;;;22.23;;
34988;SDS011;21192;40.182;44.516;2023-03-13T15:57:25;43.53;;;20.55;;
34988;SDS011;21192;40.182;44.516;2023-03-13T15:59:52;51.97;;;24.30;;
34988;SDS011;21192;40.182;44.516;2023-03-13T16:02:19;53.70;;;26.35;;
34988;SDS011;21192;40.182;44.516;2023-03-13T16:04:46;61.45;;;24.70;;
34988;SDS011;21192;40.182;44.516;2023-03-13T16:07:14;55.75;;;26.13;;
34988;SDS011;21192;40.182;44.516;2023-03-13T16:09:42;58.35;;;24.23;;
34988;SDS011;21192;40.182;44.516;2023-03-13T16:12:08;68.63;;;28.65;;
34988;SDS011;21192;40.182;44.516;2023-03-13T16:14:35;72.45;;;30.77;;
34988;SDS011;21192;40.182;44.516;2023-03-13T16:17:03;64.95;;;28.33;;
34988;SDS011;21192;40.182;44.516;2023-03-13T16:19:40;70.93;;;26.52;;
34988;SDS011;21192;40.182;44.516;2023-03-13T16:22:06;65.75;;;26.15;;
34988;SDS011;21192;40.182;44.516;2023-03-13T16:24:32;68.25;;;28.80;;
34988;SDS011;21192;40.182;44.516;2023-03-13T16:26:57;72.18;;;28.75;;
34988;SDS011;21192;40.182;44.516;2023-03-13T16:29:23;54.03;;;24.13;;
34988;SDS011;21192;40.182;44.516;2023-03-13T16:31:49;78.68;;;36.13;;
34988;SDS011;21192;40.182;44.516;2023-03-13T16:34:15;52.45;;;24.15;;